PROFILE

 METAR AND TAF INFORMATION
ADDS - METARS form results

(1308 UTC 26 March 2019)
http://aviationweather.gov/metar/data/
 
DAAE 261300Z 32004KT 7000 FEW020 SCT040 BKN090 15/10 Q1019
TAF DAAE 261100Z 2612/2712 04014KT 7000 SCT016 SCT030 PROB30 TEMPO 2612/2618 FEW023TCU BECMG 2618/2621 32006KT PROB30 TEMPO 2621/2706 2000 -DZ BR BKN008 

 AIRPORT MAP

 RUNWAY INFORMATION
Runway 08 Runway length 7874 ft Runway width 148 ft
Runway elevation 20 ft Runway displaced threshold 0 ft Runway heading 80
Runway 26 Runway length 7874 ft Runway width 148 ft
Runway elevation 10 ft Runway displaced threshold 0 ft Runway heading 260

 AIRPORT FREQUENCIES
Type TWR Name BEJAIA TWR Frequency 118.9 MHZ

 AIRPORT NEAR NAVIGATION AIDS
Type NDB Name Bejaia Frequency 423 KHZ